Time;durP1;ratioP1;P1;durP2;ratioP2;P2;SDS_P1;SDS_P2;PMS_P1;PMS_P2;Temp;Humidity;BMP_temperature;BMP_pressure;BME280_temperature;BME280_humidity;BME280_pressure;Samples;Min_cycle;Max_cycle;Signal;HPM_P1;HPM_P2
2022/07/22 00:01:44;;;;;;;11.23;7.88;;;20.60;1.00;;;;;;7363598;19;20103;-76
2022/07/22 00:04:14;;;;;;;14.25;10.13;;;20.60;1.00;;;;;;7365235;19;20455;-76
2022/07/22 00:06:45;;;;;;;18.38;11.18;;;20.40;1.00;;;;;;7365807;19;20021;-75
2022/07/22 00:09:15;;;;;;;13.73;9.25;;;20.50;1.00;;;;;;7358511;19;20011;-75
2022/07/22 00:11:45;;;;;;;11.07;7.88;;;20.30;1.00;;;;;;7383810;19;20114;-75
2022/07/22 00:14:18;;;;;;;10.20;7.45;;;20.30;1.00;;;;;;7364319;19;20014;-75
2022/07/22 00:16:48;;;;;;;13.40;8.13;;;20.40;1.00;;;;;;7363531;19;20014;-75
2022/07/22 00:19:17;;;;;;;8.90;7.32;;;20.30;1.00;;;;;;7358287;19;20369;-74
2022/07/22 00:21:47;;;;;;;9.50;7.82;;;20.30;1.00;;;;;;7371194;19;20109;-75
2022/07/22 00:24:18;;;;;;;9.15;7.43;;;20.20;1.50;;;;;;7372500;19;20021;-75
2022/07/22 00:26:48;;;;;;;9.10;8.20;;;20.40;1.00;;;;;;7388863;19;20010;-75
2022/07/22 00:29:20;;;;;;;10.52;7.57;;;20.50;1.00;;;;;;7366320;19;20002;-76
2022/07/22 00:31:50;;;;;;;11.43;8.63;;;20.50;1.00;;;;;;7369126;19;20577;-74
2022/07/22 00:34:20;;;;;;;12.65;8.73;;;20.30;1.00;;;;;;7371569;19;20010;-74
2022/07/22 00:36:51;;;;;;;10.43;8.13;;;20.20;1.30;;;;;;7370987;19;20551;-74
2022/07/22 00:39:21;;;;;;;11.35;7.68;;;20.10;1.00;;;;;;7364888;19;20006;-74
2022/07/22 00:41:52;;;;;;;12.35;7.20;;;20.10;1.00;;;;;;7391268;19;20010;-74
2022/07/22 00:44:26;;;;;;;9.52;7.70;;;20.20;1.00;;;;;;7370999;19;20031;-74
2022/07/22 00:47:02;;;;;;;9.32;7.80;;;20.10;1.00;;;;;;7369405;19;20007;-75
2022/07/22 00:49:32;;;;;;;9.63;7.07;;;20.10;1.00;;;;;;7364405;19;20024;-75
2022/07/22 00:52:02;;;;;;;10.10;7.93;;;20.10;1.00;;;;;;7367251;19;20019;-74
2022/07/22 00:54:33;;;;;;;9.88;7.82;;;20.20;1.00;;;;;;7371490;19;20425;-76
2022/07/22 00:57:03;;;;;;;11.60;8.23;;;20.20;1.00;;;;;;7374362;19;20031;-75
2022/07/22 00:59:36;;;;;;;9.15;7.85;;;20.00;1.00;;;;;;7384917;19;20025;-75
2022/07/22 01:02:06;;;;;;;9.02;8.13;;;20.00;1.00;;;;;;7367328;19;20007;-74
2022/07/22 01:04:38;;;;;;;9.70;7.90;;;20.00;1.00;;;;;;7371267;19;20082;-75
2022/07/22 01:07:08;;;;;;;10.93;7.28;;;20.00;1.00;;;;;;7369434;19;20034;-75
2022/07/22 01:09:38;;;;;;;10.80;7.70;;;19.90;1.00;;;;;;7363402;19;20021;-75
2022/07/22 01:12:09;;;;;;;9.35;7.50;;;19.90;1.00;;;;;;7368520;19;20009;-75
2022/07/22 01:14:41;;;;;;;9.40;7.15;;;19.90;1.00;;;;;;7392246;19;20014;-75
2022/07/22 01:17:11;;;;;;;8.88;7.50;;;19.80;1.00;;;;;;7368295;19;20063;-73
2022/07/22 01:19:42;;;;;;;10.02;8.15;;;19.70;1.00;;;;;;7362910;19;20303;-74
2022/07/22 01:22:14;;;;;;;10.85;8.38;;;19.70;1.50;;;;;;7369035;19;20142;-75
2022/07/22 01:24:45;;;;;;;9.73;8.18;;;19.70;2.20;;;;;;7371380;19;20006;-73
2022/07/22 01:27:15;;;;;;;10.32;8.35;;;19.70;2.30;;;;;;7368819;19;20069;-73
2022/07/22 01:29:45;;;;;;;10.60;8.07;;;19.60;4.40;;;;;;7384462;19;20377;-74
2022/07/22 01:32:15;;;;;;;10.80;8.07;;;19.50;4.20;;;;;;7369141;19;20102;-75
2022/07/22 01:34:48;;;;;;;10.65;8.60;;;19.40;5.80;;;;;;7371034;19;20038;-75
2022/07/22 01:37:20;;;;;;;11.05;8.57;;;19.20;7.20;;;;;;7369263;19;20105;-75
2022/07/22 01:39:51;;;;;;;10.15;8.73;;;19.10;8.20;;;;;;7361636;19;20025;-75
2022/07/22 01:42:21;;;;;;;16.15;8.50;;;19.10;8.60;;;;;;7369503;19;20086;-74
2022/07/22 01:44:52;;;;;;;13.60;9.00;;;19.20;8.80;;;;;;7392231;19;20022;-74
2022/07/22 01:47:22;;;;;;;12.60;9.10;;;19.10;9.40;;;;;;7367476;19;20059;-75
2022/07/22 01:49:52;;;;;;;13.00;8.57;;;19.10;10.30;;;;;;7359899;19;20078;-75
2022/07/22 01:52:25;;;;;;;13.10;9.25;;;19.00;10.20;;;;;;7370441;19;20026;-75
2022/07/22 01:54:55;;;;;;;11.07;8.68;;;18.90;10.10;;;;;;7369862;19;20010;-75
2022/07/22 01:57:25;;;;;;;10.10;9.10;;;18.80;10.70;;;;;;7368423;19;20086;-75
2022/07/22 01:59:55;;;;;;;10.30;9.02;;;18.70;11.00;;;;;;7381374;19;20018;-74
2022/07/22 02:02:25;;;;;;;11.30;8.95;;;18.70;11.20;;;;;;7369375;19;20007;-74
2022/07/22 02:04:55;;;;;;;11.63;9.48;;;18.70;11.90;;;;;;7368525;19;20065;-74
2022/07/22 02:07:27;;;;;;;11.88;9.07;;;18.70;11.70;;;;;;7368576;19;20014;-74
2022/07/22 02:09:57;;;;;;;14.23;9.32;;;18.60;12.10;;;;;;7359268;19;20021;-75
2022/07/22 02:12:27;;;;;;;10.57;9.20;;;18.60;13.30;;;;;;7369277;19;20113;-74
2022/07/22 02:14:58;;;;;;;11.43;9.30;;;18.50;13.60;;;;;;7390782;19;20018;-74
2022/07/22 02:17:28;;;;;;;12.50;8.73;;;18.50;13.60;;;;;;7367310;19;20033;-74
2022/07/22 02:19:58;;;;;;;12.35;9.23;;;18.50;13.60;;;;;;7357775;19;20540;-74
2022/07/22 02:22:30;;;;;;;13.35;9.38;;;18.40;14.00;;;;;;7368836;19;20011;-74
2022/07/22 02:25:00;;;;;;;11.40;9.48;;;18.30;14.40;;;;;;7367069;19;20271;-74
2022/07/22 02:27:30;;;;;;;12.90;9.43;;;18.30;15.50;;;;;;7365926;19;20116;-74
2022/07/22 02:30:00;;;;;;;10.65;9.02;;;18.40;16.20;;;;;;7379656;19;20755;-75
2022/07/22 02:32:30;;;;;;;10.63;9.23;;;18.50;15.10;;;;;;7368785;19;20551;-75
2022/07/22 02:35:00;;;;;;;12.55;9.82;;;18.50;14.00;;;;;;7367477;19;20488;-75
2022/07/22 02:37:36;;;;;;;10.35;8.85;;;18.40;14.60;;;;;;7368130;19;20010;-75
2022/07/22 02:40:09;;;;;;;10.48;9.38;;;18.30;15.50;;;;;;7358306;19;20795;-74
2022/07/22 02:42:39;;;;;;;12.38;9.88;;;18.40;15.60;;;;;;7365393;19;20010;-74
2022/07/22 02:45:10;;;;;;;13.20;9.85;;;18.30;15.80;;;;;;7367764;19;20011;-74
2022/07/22 02:47:48;;;;;;;11.48;9.80;;;18.30;16.30;;;;;;7385200;19;20021;-75
2022/07/22 02:50:19;;;;;;;13.25;10.57;;;18.30;17.60;;;;;;7361547;19;20398;-77
2022/07/22 02:52:51;;;;;;;10.70;9.65;;;18.20;18.80;;;;;;7368193;19;20373;-74
2022/07/22 02:55:22;;;;;;;13.07;9.88;;;18.20;19.30;;;;;;7366933;19;20079;-75
2022/07/22 02:57:54;;;;;;;13.77;10.40;;;18.10;19.30;;;;;;7366598;19;20709;-75
2022/07/22 03:00:24;;;;;;;13.18;10.60;;;18.00;20.10;;;;;;7357332;19;20091;-75
2022/07/22 03:02:54;;;;;;;13.43;10.60;;;18.00;20.50;;;;;;7389243;19;20044;-75
2022/07/22 03:05:24;;;;;;;14.07;10.80;;;18.10;20.50;;;;;;7366923;19;20010;-75
2022/07/22 03:07:56;;;;;;;13.02;10.55;;;18.00;20.70;;;;;;7366802;19;20098;-74
2022/07/22 03:10:26;;;;;;;13.63;10.65;;;18.00;20.50;;;;;;7360190;19;20094;-75
2022/07/22 03:12:58;;;;;;;13.57;10.90;;;18.00;21.20;;;;;;7365609;19;20028;-74
2022/07/22 03:15:28;;;;;;;13.18;10.90;;;18.00;21.90;;;;;;7366083;19;20014;-75
2022/07/22 03:18:01;;;;;;;12.27;10.35;;;17.80;22.00;;;;;;7387575;19;20010;-74
2022/07/22 03:20:33;;;;;;;13.88;11.25;;;17.90;23.00;;;;;;7359288;19;20331;-74
2022/07/22 03:23:05;;;;;;;12.40;10.48;;;17.80;23.20;;;;;;7366338;19;20029;-74
2022/07/22 03:25:40;;;;;;;13.43;11.85;;;17.90;22.50;;;;;;7366826;19;20563;-77
2022/07/22 03:28:10;;;;;;;16.38;11.48;;;17.90;23.00;;;;;;7365332;19;20037;-75
2022/07/22 03:30:40;;;;;;;10.80;9.70;;;17.90;22.20;;;;;;7358341;19;20550;-75
2022/07/22 03:33:12;;;;;;;11.70;10.50;;;17.80;23.00;;;;;;7365495;19;20024;-75
2022/07/22 03:35:42;;;;;;;12.80;10.43;;;17.80;23.00;;;;;;7387880;19;20038;-75
2022/07/22 03:38:16;;;;;;;14.32;10.82;;;17.80;23.50;;;;;;7364834;19;20055;-74
2022/07/22 03:40:46;;;;;;;13.88;11.05;;;17.80;23.20;;;;;;7359412;19;20078;-75
2022/07/22 03:43:16;;;;;;;14.02;11.10;;;17.80;22.90;;;;;;7365484;19;21201;-75
2022/07/22 03:45:49;;;;;;;15.82;11.20;;;17.80;23.00;;;;;;7366521;19;20036;-74
2022/07/22 03:48:18;;;;;;;13.35;11.15;;;17.90;24.10;;;;;;7363812;19;20563;-75
2022/07/22 03:50:51;;;;;;;16.08;11.02;;;17.80;24.10;;;;;;7380100;19;20037;-74
2022/07/22 03:53:24;;;;;;;16.85;10.73;;;17.80;23.60;;;;;;7362913;19;20015;-75
2022/07/22 03:56:00;;;;;;;12.68;11.23;;;17.90;23.60;;;;;;7363418;19;20470;-74
2022/07/22 03:58:34;;;;;;;13.25;10.88;;;17.90;23.20;;;;;;7363753;19;20342;-75
2022/07/22 04:01:04;;;;;;;;;;;17.90;23.80;;;;;;7358936;19;20014;-75
2022/07/22 04:03:34;;;;;;;14.93;10.50;;;18.10;22.90;;;;;;7365741;19;19942;-74
2022/07/22 04:06:08;;;;;;;12.55;10.80;;;18.30;19.90;;;;;;7364727;19;20475;-75
2022/07/22 04:08:40;;;;;;;11.98;10.32;;;18.70;17.90;;;;;;7385452;19;20014;-74
2022/07/22 04:11:10;;;;;;;13.07;10.45;;;19.10;14.00;;;;;;7360671;19;20020;-76
2022/07/22 04:13:40;;;;;;;12.75;10.02;;;19.40;12.00;;;;;;7364060;19;20022;-74
2022/07/22 04:16:10;;;;;;;12.23;10.50;;;19.60;10.60;;;;;;7365258;19;20060;-74
2022/07/22 04:18:40;;;;;;;13.38;10.60;;;19.80;7.90;;;;;;7363429;19;20014;-74
2022/07/22 04:21:10;;;;;;;13.77;10.30;;;20.10;6.50;;;;;;7360089;19;20007;-73
2022/07/22 04:23:43;;;;;;;13.70;10.02;;;20.40;4.10;;;;;;7385204;19;20017;-74
2022/07/22 04:26:13;;;;;;;13.85;10.07;;;20.50;1.60;;;;;;7363005;19;20077;-73
2022/07/22 04:28:43;;;;;;;14.07;9.82;;;20.20;2.70;;;;;;7360732;19;20011;-74
2022/07/22 04:31:12;;;;;;;10.57;9.38;;;20.90;1.20;;;;;;7359752;19;20014;-74
2022/07/22 04:33:42;;;;;;;14.07;9.65;;;21.10;1.00;;;;;;7364658;19;20007;-74
2022/07/22 04:36:12;;;;;;;14.68;10.93;;;21.60;1.00;;;;;;7363894;19;20339;-75
2022/07/22 04:38:45;;;;;;;12.50;9.82;;;21.50;1.00;;;;;;7383377;19;20082;-73
2022/07/22 04:41:15;;;;;;;13.27;10.15;;;21.70;1.00;;;;;;7357846;19;20074;-73
2022/07/22 04:43:49;;;;;;;10.15;9.13;;;22.40;1.00;;;;;;7363839;19;20011;-74
2022/07/22 04:46:19;;;;;;;14.27;9.80;;;22.10;1.00;;;;;;7362982;19;20949;-74
2022/07/22 04:48:49;;;;;;;11.98;9.50;;;22.60;1.00;;;;;;7361980;19;20021;-74
2022/07/22 04:51:19;;;;;;;12.55;10.20;;;22.90;1.00;;;;;;7359382;19;20477;-74
2022/07/22 04:53:55;;;;;;;12.65;9.95;;;23.50;1.00;;;;;;7384072;19;20017;-74
2022/07/22 04:56:25;;;;;;;11.23;9.70;;;23.00;1.00;;;;;;7360592;19;20096;-75
2022/07/22 04:58:55;;;;;;;13.70;9.90;;;22.60;1.00;;;;;;7359052;19;20033;-75
2022/07/22 05:01:25;;;;;;;10.32;8.93;;;23.20;1.00;;;;;;7359557;19;20742;-74
2022/07/22 05:03:55;;;;;;;11.05;9.10;;;22.30;1.00;;;;;;7362823;19;20098;-74
2022/07/22 05:06:25;;;;;;;11.93;9.55;;;22.10;1.00;;;;;;7368857;19;20010;-75
2022/07/22 05:08:58;;;;;;;12.45;9.68;;;23.10;1.00;;;;;;7387316;19;20018;-74
2022/07/22 05:11:28;;;;;;;11.30;9.60;;;23.70;1.00;;;;;;7367269;19;20003;-73
2022/07/22 05:14:00;;;;;;;14.68;8.70;;;24.50;1.00;;;;;;7369919;19;20072;-73
2022/07/22 05:16:32;;;;;;;10.70;9.60;;;24.10;1.00;;;;;;7369722;19;20086;-74
2022/07/22 05:19:03;;;;;;;11.60;8.90;;;23.80;1.00;;;;;;7364528;19;20597;-75
2022/07/22 05:21:40;;;;;;;11.18;10.07;;;23.10;1.00;;;;;;7367362;19;20078;-73
2022/07/22 05:24:13;;;;;;;11.90;9.73;;;22.70;1.00;;;;;;7370052;19;20085;-74
2022/07/22 05:26:44;;;;;;;11.98;9.40;;;23.40;1.00;;;;;;7389161;19;20082;-74
2022/07/22 05:29:14;;;;;;;11.65;10.23;;;22.60;1.00;;;;;;7362902;19;20074;-74
2022/07/22 05:31:44;;;;;;;12.18;9.38;;;23.70;1.00;;;;;;7365894;19;20485;-73
2022/07/22 05:34:14;;;;;;;26.70;10.27;;;24.10;1.00;;;;;;7367509;19;20018;-73
2022/07/22 05:36:44;;;;;;;14.57;10.50;;;24.50;1.00;;;;;;7368071;19;20535;-74
2022/07/22 05:39:17;;;;;;;22.83;10.27;;;25.00;1.00;;;;;;7361629;19;20662;-73
2022/07/22 05:41:49;;;;;;;37.20;11.55;;;25.40;1.00;;;;;;7388277;19;20038;-76
2022/07/22 05:44:25;;;;;;;10.88;9.73;;;24.70;1.00;;;;;;7367918;19;20521;-75
2022/07/22 05:46:55;;;;;;;31.95;12.20;;;23.80;1.00;;;;;;7365369;19;20030;-74
2022/07/22 05:49:26;;;;;;;11.00;9.80;;;22.90;1.00;;;;;;7359166;19;20014;-73
2022/07/22 05:51:59;;;;;;;13.95;10.40;;;23.50;1.00;;;;;;7363050;19;20027;-74
2022/07/22 05:54:32;;;;;;;11.18;10.07;;;23.50;1.00;;;;;;7367707;19;20109;-74
2022/07/22 05:57:02;;;;;;;12.10;10.40;;;23.80;1.00;;;;;;7380611;19;20018;-73
2022/07/22 05:59:32;;;;;;;20.25;10.88;;;22.70;1.00;;;;;;7383667;19;20030;-74
2022/07/22 06:02:02;;;;;;;12.18;10.52;;;23.60;1.00;;;;;;7363303;19;20056;-73
2022/07/22 06:04:32;;;;;;;14.63;10.45;;;23.20;1.00;;;;;;7367804;19;20018;-73
2022/07/22 06:07:06;;;;;;;11.40;10.20;;;21.90;1.00;;;;;;7368244;19;20003;-74
2022/07/22 06:09:40;;;;;;;12.85;10.30;;;20.90;1.00;;;;;;7362077;19;20010;-75
2022/07/22 06:12:10;;;;;;;13.57;10.00;;;20.90;1.00;;;;;;7365213;19;20035;-74
2022/07/22 06:14:40;;;;;;;14.40;9.77;;;21.40;1.00;;;;;;7390418;19;20026;-73
2022/07/22 06:17:10;;;;;;;12.85;9.70;;;22.40;1.00;;;;;;7362165;19;20015;-74
2022/07/22 06:19:40;;;;;;;11.32;9.32;;;23.30;1.00;;;;;;7361853;19;20014;-74
2022/07/22 06:22:11;;;;;;;16.20;10.07;;;23.90;1.00;;;;;;7362949;19;20136;-74
2022/07/22 06:24:43;;;;;;;16.40;10.00;;;23.40;1.00;;;;;;7368314;19;20002;-74
2022/07/22 06:27:13;;;;;;;15.30;10.18;;;23.20;1.00;;;;;;7365270;19;20416;-74
2022/07/22 06:29:43;;;;;;;15.48;10.38;;;23.30;1.00;;;;;;7383976;19;20030;-74
2022/07/22 06:32:13;;;;;;;39.22;12.18;;;23.60;1.00;;;;;;7363681;19;20336;-74
2022/07/22 06:34:44;;;;;;;11.95;10.20;;;23.40;1.00;;;;;;7367627;19;20079;-75
2022/07/22 06:37:14;;;;;;;11.88;10.68;;;22.40;1.00;;;;;;7366416;19;20078;-75
2022/07/22 06:39:47;;;;;;;13.27;9.98;;;22.80;1.00;;;;;;7360932;19;20014;-75
2022/07/22 06:42:17;;;;;;;12.00;9.68;;;23.40;1.00;;;;;;7365071;19;20466;-74
2022/07/22 06:44:48;;;;;;;11.60;10.00;;;23.80;1.00;;;;;;7388294;19;20018;-74
2022/07/22 06:47:18;;;;;;;15.98;10.88;;;23.80;1.00;;;;;;7365725;19;20399;-74
2022/07/22 06:49:48;;;;;;;14.65;11.43;;;23.10;1.00;;;;;;7361067;19;20083;-73
2022/07/22 06:52:18;;;;;;;13.63;11.20;;;22.30;1.00;;;;;;7366153;19;20010;-73
2022/07/22 06:54:50;;;;;;;26.50;13.05;;;22.10;1.00;;;;;;7368406;19;20132;-74
2022/07/22 06:57:20;;;;;;;13.82;10.40;;;22.30;1.00;;;;;;7366101;19;20480;-74
2022/07/22 06:59:50;;;;;;;13.10;10.98;;;22.20;1.00;;;;;;7385552;19;20018;-74
2022/07/22 07:02:20;;;;;;;13.23;11.13;;;22.40;1.00;;;;;;7365928;19;20753;-73
2022/07/22 07:04:50;;;;;;;13.70;10.23;;;22.60;1.00;;;;;;7366365;19;20017;-74
2022/07/22 07:07:20;;;;;;;21.90;11.90;;;22.90;1.00;;;;;;7366422;19;20362;-74
2022/07/22 07:09:53;;;;;;;14.43;10.95;;;22.60;1.00;;;;;;7363828;19;20007;-73
2022/07/22 07:12:23;;;;;;;13.48;10.93;;;22.90;1.00;;;;;;7365481;19;20071;-74
2022/07/22 07:14:54;;;;;;;12.98;11.38;;;23.00;1.00;;;;;;7388099;19;20470;-74
2022/07/22 07:17:43;;;;;;;17.45;11.48;;;22.90;1.00;;;;;;7365014;19;20022;-74
2022/07/22 07:20:16;;;;;;;13.82;11.35;;;23.30;1.00;;;;;;7356357;19;20006;-74
2022/07/22 07:22:46;;;;;;;15.07;11.13;;;22.90;1.00;;;;;;7364106;19;20021;-74
2022/07/22 07:25:19;;;;;;;17.13;11.10;;;23.00;1.00;;;;;;7366332;19;20490;-74
2022/07/22 07:27:53;;;;;;;15.05;11.10;;;23.40;1.00;;;;;;7366700;19;20457;-73
2022/07/22 07:30:24;;;;;;;14.07;9.63;;;23.40;1.00;;;;;;7358422;19;20008;-73
2022/07/22 07:32:54;;;;;;;11.85;9.63;;;23.60;1.00;;;;;;7388720;19;20091;-75
2022/07/22 07:35:24;;;;;;;11.15;9.95;;;23.50;1.00;;;;;;7365741;19;20031;-74
2022/07/22 07:38:00;;;;;;;12.05;10.63;;;23.60;1.00;;;;;;7362874;19;20505;-74
2022/07/22 07:40:32;;;;;;;11.15;8.85;;;23.90;1.00;;;;;;7355410;19;20094;-74
2022/07/22 07:43:02;;;;;;;10.52;9.05;;;23.40;1.00;;;;;;7366046;19;20101;-74
2022/07/22 07:45:33;;;;;;;11.05;9.32;;;23.10;1.00;;;;;;7366522;19;20474;-73
2022/07/22 07:48:03;;;;;;;13.68;9.10;;;23.70;1.00;;;;;;7368800;19;20118;-73
2022/07/22 07:50:36;;;;;;;10.23;8.70;;;23.10;1.00;;;;;;7377836;19;20030;-74
2022/07/22 07:53:06;;;;;;;13.18;9.52;;;23.70;1.00;;;;;;7363728;19;20338;-74
2022/07/22 07:55:39;;;;;;;9.63;8.73;;;23.60;1.00;;;;;;7363786;19;20449;-75
2022/07/22 07:58:09;;;;;;;13.38;9.32;;;23.80;1.00;;;;;;7365173;19;20082;-74
2022/07/22 08:00:42;;;;;;;10.98;9.55;;;23.60;1.00;;;;;;7355396;19;20074;-74
2022/07/22 08:03:12;;;;;;;15.32;9.80;;;23.80;1.00;;;;;;7364637;19;20017;-73
2022/07/22 08:05:43;;;;;;;35.40;12.35;;;23.40;1.00;;;;;;7386887;19;20386;-73
2022/07/22 08:08:14;;;;;;;12.65;9.15;;;23.50;1.00;;;;;;7363874;19;20019;-73
2022/07/22 08:10:47;;;;;;;9.25;8.02;;;24.20;1.00;;;;;;7356248;19;20018;-73
2022/07/22 08:13:28;;;;;;;13.27;9.23;;;24.60;1.00;;;;;;7365732;19;20006;-73
2022/07/22 08:15:58;;;;;;;12.27;9.02;;;24.50;1.00;;;;;;7363008;19;20021;-74
2022/07/22 08:18:29;;;;;;;21.92;13.13;;;24.30;1.00;;;;;;7364995;19;20006;-74
2022/07/22 08:20:59;;;;;;;10.00;8.63;;;24.50;1.00;;;;;;7376636;19;20466;-73
2022/07/22 08:23:29;;;;;;;12.60;11.05;;;24.00;1.00;;;;;;7364858;19;20010;-74
2022/07/22 08:26:03;;;;;;;10.48;8.55;;;24.00;1.00;;;;;;7362549;19;20015;-74
2022/07/22 08:28:33;;;;;;;18.50;12.05;;;24.80;1.00;;;;;;7362011;19;20013;-74
2022/07/22 08:31:03;;;;;;;10.32;9.10;;;24.80;1.00;;;;;;7354101;19;20027;-74
2022/07/22 08:33:35;;;;;;;11.75;8.20;;;25.00;1.00;;;;;;7364514;19;20010;-74
2022/07/22 08:36:05;;;;;;;11.63;10.15;;;25.70;1.00;;;;;;7361065;19;20026;-74
2022/07/22 08:38:35;;;;;;;13.57;9.55;;;24.90;1.00;;;;;;7381384;19;20019;-75
2022/07/22 08:41:07;;;;;;;14.20;8.38;;;25.20;1.00;;;;;;7356617;19;20018;-74
2022/07/22 08:43:42;;;;;;;20.52;8.93;;;25.40;1.00;;;;;;7370657;19;20086;-74
2022/07/22 08:46:12;;;;;;;9.00;7.93;;;25.50;1.00;;;;;;7368599;19;20367;-73
2022/07/22 08:48:42;;;;;;;15.25;8.80;;;25.90;1.00;;;;;;7367902;19;20010;-74
2022/07/22 08:51:14;;;;;;;10.63;9.10;;;25.50;1.00;;;;;;7361314;19;20093;-74
2022/07/22 08:53:44;;;;;;;8.95;7.32;;;24.60;1.00;;;;;;7392961;19;20091;-73
2022/07/22 08:56:17;;;;;;;9.48;7.20;;;25.10;1.00;;;;;;7369393;19;20048;-74
2022/07/22 08:58:47;;;;;;;8.95;7.55;;;25.40;1.00;;;;;;7370677;19;20077;-74
2022/07/22 09:01:19;;;;;;;8.93;7.82;;;26.10;1.00;;;;;;7362086;19;20003;-74
2022/07/22 09:03:51;;;;;;;10.48;7.20;;;26.10;1.00;;;;;;7368961;19;20026;-74
2022/07/22 09:06:23;;;;;;;10.13;7.60;;;26.10;1.00;;;;;;7369219;19;20050;-73
2022/07/22 09:08:58;;;;;;;9.13;7.70;;;26.10;1.00;;;;;;7391759;19;20028;-73
2022/07/22 09:11:32;;;;;;;9.13;8.02;;;26.10;1.00;;;;;;7361289;19;20078;-73
2022/07/22 09:14:03;;;;;;;9.40;7.78;;;25.80;1.00;;;;;;7371020;19;20014;-73
2022/07/22 09:16:46;;;;;;;12.23;7.85;;;25.90;1.00;;;;;;7368541;19;20018;-74
2022/07/22 09:19:17;;;;;;;9.13;7.72;;;25.50;1.00;;;;;;7368642;19;20536;-73
2022/07/22 09:21:50;;;;;;;9.55;8.52;;;26.20;1.00;;;;;;7364347;19;20421;-75
2022/07/22 09:24:32;;;;;;;9.32;7.28;;;26.10;1.00;;;;;;7369260;19;20013;-74
2022/07/22 09:27:06;;;;;;;10.10;7.80;;;26.30;1.00;;;;;;7389051;19;20035;-73
2022/07/22 09:29:36;;;;;;;8.90;8.00;;;26.10;1.00;;;;;;7365349;19;20010;-73
2022/07/22 09:32:09;;;;;;;10.07;8.25;;;26.20;1.00;;;;;;7365370;19;20015;-73
2022/07/22 09:34:40;;;;;;;8.93;7.68;;;26.20;1.00;;;;;;7369463;19;20011;-73
2022/07/22 09:37:15;;;;;;;7.60;6.85;;;26.10;1.00;;;;;;7366723;19;20530;-76
2022/07/22 09:39:45;;;;;;;10.18;7.13;;;26.80;1.00;;;;;;7365920;19;20086;-74
2022/07/22 09:42:18;;;;;;;9.63;7.20;;;26.80;1.00;;;;;;7365653;19;20014;-74
2022/07/22 09:44:52;;;;;;;10.00;7.40;;;27.20;1.00;;;;;;7390570;19;20078;-74
2022/07/22 09:47:32;;;;;;;;;;;27.00;1.00;;;;;;7367436;19;20069;-73
2022/07/22 09:50:20;;;;;;;8.98;7.13;;;26.80;1.00;;;;;;7359008;19;19926;-73
2022/07/22 09:52:53;;;;;;;10.40;6.90;;;26.70;1.00;;;;;;7368989;19;20010;-75
2022/07/22 09:55:33;;;;;;;8.52;7.07;;;26.70;1.00;;;;;;7368496;19;20380;-75
2022/07/22 09:58:12;;;;;;;9.98;7.55;;;26.90;1.00;;;;;;7369172;19;20014;-73
2022/07/22 10:00:43;;;;;;;11.02;7.40;;;26.80;1.00;;;;;;7359735;19;20018;-74
2022/07/22 10:03:16;;;;;;;12.48;7.70;;;27.10;1.00;;;;;;7370460;19;20015;-72
2022/07/22 10:05:47;;;;;;;8.48;6.65;;;27.40;1.00;;;;;;7388895;19;20050;-73
2022/07/22 10:08:17;;;;;;;7.40;6.70;;;26.90;1.00;;;;;;7368018;19;20525;-75
2022/07/22 10:10:47;;;;;;;10.48;7.07;;;27.10;1.00;;;;;;7359651;19;20014;-75
2022/07/22 10:13:21;;;;;;;8.55;6.63;;;27.30;1.00;;;;;;7369020;19;20014;-72
2022/07/22 10:15:52;;;;;;;8.15;6.50;;;26.90;1.00;;;;;;7367780;19;20033;-74
2022/07/22 10:18:25;;;;;;;8.02;6.80;;;27.20;1.00;;;;;;7367276;19;20102;-74
2022/07/22 10:21:04;;;;;;;8.75;7.22;;;27.10;1.00;;;;;;7380049;19;20406;-74
2022/07/22 10:23:35;;;;;;;8.00;6.72;;;27.60;1.00;;;;;;7368345;19;20003;-74
2022/07/22 10:26:06;;;;;;;8.65;6.85;;;27.50;1.00;;;;;;7365560;19;20010;-72
2022/07/22 10:28:40;;;;;;;7.38;6.50;;;27.70;1.00;;;;;;7366736;19;20485;-74
2022/07/22 10:31:24;;;;;;;8.43;6.10;;;27.50;1.00;;;;;;7355545;19;20006;-74
2022/07/22 10:33:57;;;;;;;9.65;6.88;;;27.50;1.00;;;;;;7364901;19;20014;-74
2022/07/22 10:36:36;;;;;;;8.32;6.40;;;27.90;1.00;;;;;;7365543;19;20393;-75
2022/07/22 10:39:10;;;;;;;7.15;6.30;;;28.20;1.00;;;;;;7365050;19;20510;-74
2022/07/22 10:41:42;;;;;;;13.15;7.10;;;28.20;1.00;;;;;;7380217;19;20035;-74
2022/07/22 10:44:49;;;;;;;8.23;6.85;;;28.20;1.00;;;;;;7365307;19;20015;-74
2022/07/22 10:47:57;;;;;;;9.85;6.22;;;28.60;1.00;;;;;;7363718;19;20021;-75
2022/07/22 10:50:46;;;;;;;8.45;6.40;;;28.60;1.00;;;;;;7356221;19;20452;-74
2022/07/22 10:53:18;;;;;;;7.18;5.95;;;28.00;1.00;;;;;;7365424;19;20672;-73
2022/07/22 10:56:09;;;;;;;7.45;6.45;;;28.10;1.00;;;;;;7364408;19;20110;-76
2022/07/22 10:58:48;;;;;;;7.35;6.65;;;28.20;1.00;;;;;;7365442;19;20074;-73
2022/07/22 11:01:22;;;;;;;7.22;6.53;;;28.30;1.00;;;;;;7356807;19;20010;-73
2022/07/22 11:03:53;;;;;;;10.15;7.03;;;29.00;1.00;;;;;;7363642;19;20006;-75
2022/07/22 11:06:27;;;;;;;7.65;6.82;;;29.00;1.00;;;;;;7364979;19;20014;-74
2022/07/22 11:08:59;;;;;;;7.55;6.75;;;28.80;1.00;;;;;;7388652;19;20010;-74
2022/07/22 11:11:41;;;;;;;7.97;6.78;;;28.70;1.00;;;;;;7355335;19;20018;-75
2022/07/22 11:14:31;;;;;;;7.45;6.57;;;29.00;1.00;;;;;;7364629;19;20034;-76
2022/07/22 11:17:08;;;;;;;8.65;6.65;;;28.70;1.00;;;;;;7362957;19;20018;-74
2022/07/22 11:19:39;;;;;;;7.15;6.40;;;28.80;1.00;;;;;;7360584;19;20081;-74
2022/07/22 11:22:12;;;;;;;8.80;6.63;;;28.70;1.00;;;;;;7359385;19;20007;-74
2022/07/22 11:24:43;;;;;;;7.22;6.53;;;28.90;1.00;;;;;;7365089;19;20014;-74
2022/07/22 11:27:17;;;;;;;6.75;6.05;;;29.00;1.00;;;;;;7362901;19;20423;-74
2022/07/22 11:29:52;;;;;;;6.93;6.22;;;29.20;1.00;;;;;;7382122;19;20054;-74
2022/07/22 11:32:25;;;;;;;7.70;6.90;;;29.20;1.00;;;;;;7362317;19;20014;-74
2022/07/22 11:34:59;;;;;;;7.47;6.70;;;29.20;1.00;;;;;;7362952;19;20021;-74
2022/07/22 11:37:30;;;;;;;6.75;6.15;;;29.50;1.00;;;;;;7361943;19;20018;-74
2022/07/22 11:40:03;;;;;;;6.65;6.05;;;29.80;1.00;;;;;;7355345;19;20680;-74
2022/07/22 11:42:33;;;;;;;7.70;5.65;;;29.80;1.00;;;;;;7364061;19;20002;-74
2022/07/22 11:45:04;;;;;;;8.57;6.60;;;29.90;1.00;;;;;;7368872;19;20014;-74
2022/07/22 11:47:36;;;;;;;6.70;6.10;;;29.30;1.00;;;;;;7384007;19;20035;-74
2022/07/22 11:50:07;;;;;;;6.50;5.82;;;29.30;1.00;;;;;;7353383;19;20015;-74
2022/07/22 11:52:37;;;;;;;8.93;6.00;;;29.40;1.00;;;;;;7363469;19;20518;-74
2022/07/22 11:55:17;;;;;;;7.15;6.15;;;29.70;1.00;;;;;;7364175;19;20003;-74
2022/07/22 11:57:50;;;;;;;9.38;6.18;;;29.70;1.00;;;;;;7364248;19;20023;-75
2022/07/22 12:00:20;;;;;;;6.63;5.97;;;29.50;1.00;;;;;;7350518;19;20054;-75
2022/07/22 12:02:53;;;;;;;7.80;6.40;;;29.90;1.00;;;;;;7385457;19;20023;-74
2022/07/22 12:05:23;;;;;;;7.13;6.35;;;29.50;1.00;;;;;;7362536;19;20544;-74
2022/07/22 12:08:02;;;;;;;6.72;6.13;;;29.70;1.00;;;;;;7364611;19;20408;-74
2022/07/22 12:10:32;;;;;;;6.40;5.80;;;29.50;1.00;;;;;;7355830;19;20081;-74
2022/07/22 12:13:02;;;;;;;9.60;6.28;;;29.50;1.00;;;;;;7364416;19;20085;-75
2022/07/22 12:15:32;;;;;;;8.32;6.10;;;29.50;1.00;;;;;;7367123;19;20014;-74
2022/07/22 12:18:24;;;;;;;6.68;5.88;;;29.60;1.00;;;;;;7371209;19;20015;-74
2022/07/22 12:20:55;;;;;;;7.25;6.60;;;30.10;1.00;;;;;;7383901;19;20011;-74
2022/07/22 12:23:28;;;;;;;6.72;6.13;;;30.40;1.00;;;;;;7368118;19;20081;-74
2022/07/22 12:26:00;;;;;;;6.85;6.15;;;30.20;1.00;;;;;;7369070;19;20025;-73
2022/07/22 12:28:31;;;;;;;6.22;5.47;;;30.00;1.00;;;;;;7370498;19;20024;-74
2022/07/22 12:31:01;;;;;;;6.50;5.90;;;30.40;1.00;;;;;;7361923;19;20017;-73
2022/07/22 12:33:34;;;;;;;6.55;5.80;;;30.70;1.00;;;;;;7370521;19;20003;-74
2022/07/22 12:36:06;;;;;;;6.40;5.75;;;30.40;1.00;;;;;;7371049;19;20396;-74
2022/07/22 12:38:36;;;;;;;8.35;6.00;;;30.50;1.00;;;;;;7391215;19;20022;-74
2022/07/22 12:41:29;;;;;;;7.30;6.07;;;30.00;1.00;;;;;;7359711;19;20017;-74
2022/07/22 12:43:59;;;;;;;6.53;5.85;;;30.20;1.00;;;;;;7369219;19;20013;-73
2022/07/22 12:46:30;;;;;;;6.97;6.20;;;30.70;1.00;;;;;;7367772;19;20010;-73
2022/07/22 12:49:03;;;;;;;6.30;5.70;;;31.10;1.00;;;;;;7369304;19;20782;-75
2022/07/22 12:51:33;;;;;;;6.60;6.00;;;30.80;1.00;;;;;;7362452;19;20018;-73
2022/07/22 12:54:03;;;;;;;6.30;5.55;;;31.00;1.00;;;;;;7382112;19;20014;-75
2022/07/22 12:56:33;;;;;;;8.40;5.93;;;31.20;1.00;;;;;;7389800;19;20102;-73
2022/07/22 12:59:06;;;;;;;6.30;5.63;;;30.50;1.00;;;;;;7369168;19;20011;-73
2022/07/22 13:01:36;;;;;;;6.93;5.93;;;30.50;1.00;;;;;;7363494;19;20195;-74
2022/07/22 13:04:09;;;;;;;7.10;5.53;;;30.60;1.00;;;;;;7370978;19;20339;-74
2022/07/22 13:06:39;;;;;;;11.60;6.05;;;30.70;1.00;;;;;;7370015;19;20018;-74
2022/07/22 13:09:09;;;;;;;6.28;5.68;;;30.40;1.00;;;;;;7369002;19;20031;-73
2022/07/22 13:11:47;;;;;;;6.10;5.10;;;30.40;1.00;;;;;;7386787;19;20014;-73